Time;durP1;ratioP1;P1;durP2;ratioP2;P2;SDS_P1;SDS_P2;PMS_P1;PMS_P2;Temp;Humidity;BMP_temperature;BMP_pressure;BME280_temperature;BME280_humidity;BME280_pressure;Samples;Min_cycle;Max_cycle;Signal;HPM_P1;HPM_P2
2022/12/08 00:01:06;;;;;;;1.10;0.60;;;18.10;98.10;;;;;;7407264;19;20360;-44
2022/12/08 00:03:36;;;;;;;1.75;0.20;;;18.10;98.20;;;;;;7404167;19;19923;-45
2022/12/08 00:11:29;;;;;;;1.88;0.10;;;18.00;98.20;;;;;;7403898;19;20269;-43
2022/12/08 00:14:01;;;;;;;1.23;0.70;;;17.90;98.30;;;;;;7408178;19;20358;-45
2022/12/08 00:16:30;;;;;;;1.23;0.20;;;17.80;98.30;;;;;;7404297;19;19915;-43
2022/12/08 00:18:59;;;;;;;1.40;0.55;;;17.90;98.30;;;;;;7407744;19;19947;-44
2022/12/08 00:21:28;;;;;;;1.10;0.13;;;17.80;98.30;;;;;;7403845;19;19947;-43
2022/12/08 00:23:57;;;;;;;1.33;0.45;;;17.80;98.30;;;;;;7404057;19;20349;-43
2022/12/08 00:26:26;;;;;;;1.08;0.35;;;17.80;98.40;;;;;;7407044;19;19933;-43
2022/12/08 00:28:55;;;;;;;2.03;0.15;;;17.70;98.40;;;;;;7404044;19;19919;-44
2022/12/08 00:31:27;;;;;;;;;;;17.70;98.40;;;;;;7406294;19;19922;-45
2022/12/08 00:33:56;;;;;;;1.25;0.50;;;17.70;98.50;;;;;;7401553;19;20260;-44
2022/12/08 00:36:25;;;;;;;1.52;0.17;;;17.60;98.40;;;;;;7402771;19;20262;-45
2022/12/08 00:38:54;;;;;;;1.73;0.70;;;17.60;98.40;;;;;;7397814;19;19937;-46
2022/12/08 00:42:10;;;;;;;1.13;0.13;;;17.60;98.40;;;;;;7404659;19;19973;-43
2022/12/08 00:44:17;;;;;;;1.67;0.40;;;17.60;98.50;;;;;;7403459;19;19921;-44
2022/12/08 00:46:50;;;;;;;1.90;0.47;;;17.50;98.50;;;;;;7406943;19;19925;-44
2022/12/08 00:49:19;;;;;;;1.88;0.10;;;17.50;98.50;;;;;;7401185;19;20280;-44
2022/12/08 00:51:48;;;;;;;;;;;17.40;98.50;;;;;;7405919;19;19918;-44
2022/12/08 00:54:17;;;;;;;1.50;0.63;;;17.40;98.60;;;;;;7403132;19;19942;-46
2022/12/08 00:56:46;;;;;;;1.30;0.10;;;17.40;98.60;;;;;;7397095;19;19922;-44
2022/12/08 00:59:15;;;;;;;1.30;0.65;;;17.30;98.60;;;;;;7404678;19;19930;-43
2022/12/08 01:01:49;;;;;;;2.38;0.30;;;17.30;98.60;;;;;;7401789;19;19921;-43
2022/12/08 01:04:20;;;;;;;1.75;0.32;;;17.30;98.60;;;;;;7402418;19;19962;-43
2022/12/08 01:06:50;;;;;;;1.40;0.20;;;17.20;98.70;;;;;;7402710;19;19939;-45
2022/12/08 01:09:31;;;;;;;1.20;0.10;;;17.20;98.70;;;;;;7405390;19;19915;-42
2022/12/08 01:12:11;;;;;;;2.05;0.10;;;17.20;98.70;;;;;;7403442;19;20266;-43
2022/12/08 01:14:40;;;;;;;0.95;0.10;;;17.20;98.70;;;;;;7403270;19;19926;-43
2022/12/08 01:17:12;;;;;;;0.70;0.10;;;17.20;98.70;;;;;;7403304;19;19915;-43
2022/12/08 01:19:41;;;;;;;1.30;0.80;;;17.10;98.70;;;;;;7405022;19;19914;-42
2022/12/08 01:22:10;;;;;;;1.23;0.40;;;17.10;98.70;;;;;;7401121;19;20335;-45
2022/12/08 01:24:39;;;;;;;0.90;0.35;;;17.10;98.70;;;;;;7402991;19;19929;-43
2022/12/08 01:27:08;;;;;;;0.82;0.20;;;17.10;98.80;;;;;;7403252;19;19925;-44
2022/12/08 01:29:37;;;;;;;1.77;0.63;;;17.10;98.80;;;;;;7401744;19;19910;-43
2022/12/08 01:32:07;;;;;;;1.20;0.10;;;17.10;98.80;;;;;;7403313;19;19919;-44
2022/12/08 01:34:38;;;;;;;1.10;0.10;;;17.00;98.80;;;;;;7403436;19;19961;-42
2022/12/08 01:37:07;;;;;;;1.30;0.65;;;17.00;99.00;;;;;;7399470;19;19918;-51
2022/12/08 01:39:37;;;;;;;1.17;0.10;;;17.00;98.80;;;;;;7411114;19;19922;-43
2022/12/08 01:42:06;;;;;;;1.92;0.52;;;17.00;98.80;;;;;;7410468;19;19926;-45
2022/12/08 01:44:58;;;;;;;0.85;0.10;;;16.90;98.80;;;;;;7410430;19;19922;-43
2022/12/08 01:47:31;;;;;;;1.48;0.20;;;17.00;98.80;;;;;;7411960;19;19914;-45
2022/12/08 01:50:04;;;;;;;1.33;0.20;;;16.90;98.80;;;;;;7410091;19;19994;-44
2022/12/08 01:52:42;;;;;;;1.55;0.45;;;16.90;98.90;;;;;;7411343;19;19911;-44
2022/12/08 01:55:18;;;;;;;0.95;0.10;;;16.90;98.80;;;;;;7401547;19;19930;-45
2022/12/08 01:57:49;;;;;;;1.52;0.20;;;16.80;98.80;;;;;;7411789;19;19935;-45
2022/12/08 02:00:21;;;;;;;1.85;0.40;;;16.80;98.80;;;;;;7409002;19;19922;-44
2022/12/08 02:02:56;;;;;;;1.23;0.15;;;16.80;98.80;;;;;;7407382;19;19943;-43
2022/12/08 02:05:31;;;;;;;1.20;0.50;;;16.80;98.90;;;;;;7407865;19;19922;-44
2022/12/08 02:08:03;;;;;;;1.20;0.55;;;16.80;98.80;;;;;;7407771;19;19925;-43
2022/12/08 02:10:34;;;;;;;1.05;0.47;;;16.80;98.80;;;;;;7402196;19;19914;-44
2022/12/08 02:13:06;;;;;;;1.38;0.20;;;16.70;98.80;;;;;;7409820;19;19939;-43
2022/12/08 02:15:46;;;;;;;1.63;1.13;;;16.70;98.80;;;;;;7409855;19;19923;-43
2022/12/08 02:18:38;;;;;;;0.70;0.10;;;16.70;98.90;;;;;;7407386;19;20278;-44
2022/12/08 02:21:15;;;;;;;0.70;0.08;;;16.70;98.90;;;;;;7406928;19;20297;-44
2022/12/08 02:23:53;;;;;;;0.95;0.10;;;16.70;98.90;;;;;;7406350;19;19918;-44
2022/12/08 02:27:01;;;;;;;0.98;0.40;;;16.70;98.90;;;;;;7406286;19;19955;-43
2022/12/08 02:29:53;;;;;;;0.95;0.40;;;16.70;98.90;;;;;;7409016;19;19970;-46
2022/12/08 02:32:54;;;;;;;1.83;0.93;;;16.70;98.90;;;;;;7406887;19;19935;-47
2022/12/08 02:35:28;;;;;;;;;;;16.70;98.90;;;;;;7408650;19;20691;-44
2022/12/08 02:38:06;;;;;;;1.42;0.55;;;16.60;98.90;;;;;;7406531;19;19943;-45
2022/12/08 02:40:39;;;;;;;0.80;0.10;;;16.60;98.90;;;;;;7396914;19;19928;-43
2022/12/08 02:43:11;;;;;;;1.23;0.10;;;16.60;98.90;;;;;;7409487;19;19936;-44
2022/12/08 02:45:46;;;;;;;2.47;0.80;;;16.60;98.80;;;;;;7408349;19;20628;-42
2022/12/08 02:48:15;;;;;;;0.85;0.15;;;16.60;98.90;;;;;;7404401;19;20343;-43
2022/12/08 02:50:47;;;;;;;1.70;0.50;;;16.60;98.80;;;;;;7406693;19;19923;-42
2022/12/08 02:53:19;;;;;;;1.65;0.20;;;16.60;98.90;;;;;;7405777;19;19923;-42
2022/12/08 02:55:58;;;;;;;1.15;0.22;;;16.60;98.90;;;;;;7403240;19;20269;-43
2022/12/08 02:58:39;;;;;;;1.95;0.15;;;16.60;98.90;;;;;;7406900;19;19922;-44
2022/12/08 03:01:29;;;;;;;0.40;0.08;;;16.60;98.90;;;;;;7407064;19;19929;-44
2022/12/08 03:04:04;;;;;;;1.00;0.30;;;16.60;98.90;;;;;;7409964;19;19922;-42
2022/12/08 03:06:50;;;;;;;0.93;0.10;;;16.50;98.90;;;;;;7405633;19;20297;-42
2022/12/08 03:09:22;;;;;;;0.80;0.10;;;16.50;98.90;;;;;;7408907;19;19924;-44
2022/12/08 03:11:57;;;;;;;1.77;0.45;;;16.50;98.90;;;;;;7405739;19;19919;-44
2022/12/08 03:14:27;;;;;;;1.35;0.40;;;16.50;98.90;;;;;;7396607;19;19946;-43
2022/12/08 03:16:58;;;;;;;;;;;16.50;98.90;;;;;;7411731;19;19924;-43
2022/12/08 03:19:30;;;;;;;1.75;0.57;;;16.50;98.90;;;;;;7408790;19;19918;-42
2022/12/08 03:22:04;;;;;;;0.98;0.13;;;16.50;98.90;;;;;;7410353;19;20008;-43
2022/12/08 03:24:36;;;;;;;0.73;0.40;;;16.50;98.90;;;;;;7405146;19;19925;-44
2022/12/08 03:27:07;;;;;;;0.68;0.05;;;16.50;98.90;;;;;;7405312;19;19924;-43
2022/12/08 03:29:36;;;;;;;1.77;0.40;;;16.50;98.90;;;;;;7406965;19;19942;-44
2022/12/08 03:32:12;;;;;;;1.15;0.10;;;16.50;98.90;;;;;;7398896;19;19943;-43
2022/12/08 03:34:44;;;;;;;0.80;0.50;;;16.50;98.90;;;;;;7406393;19;19922;-44
2022/12/08 03:37:16;;;;;;;1.70;0.20;;;16.40;98.90;;;;;;7407519;19;20249;-43
2022/12/08 03:39:45;;;;;;;0.65;0.00;;;16.40;98.90;;;;;;7409203;19;19922;-43
2022/12/08 03:42:19;;;;;;;0.90;0.38;;;16.40;98.90;;;;;;7405320;19;19918;-42
2022/12/08 03:44:48;;;;;;;0.70;0.10;;;16.40;98.90;;;;;;7407704;19;19930;-44
2022/12/08 03:47:17;;;;;;;1.63;0.45;;;16.40;98.90;;;;;;7398471;19;19951;-43
2022/12/08 03:49:46;;;;;;;0.88;0.20;;;16.40;98.90;;;;;;7405781;19;20401;-43
2022/12/08 03:52:17;;;;;;;1.20;0.40;;;16.40;98.90;;;;;;7408047;19;19932;-43
2022/12/08 03:54:46;;;;;;;1.23;0.30;;;16.40;98.90;;;;;;7404163;19;19915;-44
2022/12/08 03:57:15;;;;;;;0.50;0.00;;;16.40;98.90;;;;;;7405684;19;19922;-42
2022/12/08 03:59:44;;;;;;;1.10;0.57;;;16.40;98.90;;;;;;7405169;19;19935;-43
2022/12/08 04:02:13;;;;;;;0.70;0.10;;;16.40;98.90;;;;;;7407266;19;20325;-43
2022/12/08 04:04:42;;;;;;;1.05;0.68;;;16.30;98.90;;;;;;7399858;19;19923;-42
2022/12/08 04:07:11;;;;;;;0.65;0.15;;;16.40;98.90;;;;;;7408504;19;19974;-43
2022/12/08 04:09:43;;;;;;;0.82;0.40;;;16.30;98.90;;;;;;7405395;19;19923;-44
2022/12/08 04:12:12;;;;;;;0.57;0.10;;;16.30;98.90;;;;;;7408032;19;20623;-42
2022/12/08 04:14:42;;;;;;;0.50;0.13;;;16.30;98.90;;;;;;7404858;19;20266;-43
2022/12/08 04:17:11;;;;;;;0.77;0.10;;;16.30;99.10;;;;;;7404724;19;19914;-43
2022/12/08 04:19:41;;;;;;;1.50;0.10;;;16.30;98.90;;;;;;7406537;19;20252;-43
2022/12/08 04:22:10;;;;;;;0.95;0.28;;;16.30;98.90;;;;;;7406409;19;20647;-43
2022/12/08 04:24:39;;;;;;;0.93;0.30;;;16.30;98.90;;;;;;7404212;19;20395;-43
2022/12/08 04:27:11;;;;;;;0.80;0.10;;;16.30;98.90;;;;;;7405798;19;19918;-43
2022/12/08 04:29:40;;;;;;;1.13;0.57;;;16.20;98.90;;;;;;7405114;19;20372;-41
2022/12/08 04:32:09;;;;;;;1.05;0.30;;;16.20;98.90;;;;;;7395933;19;20368;-43
2022/12/08 04:34:38;;;;;;;0.60;0.10;;;16.20;98.90;;;;;;7406102;19;19922;-42
2022/12/08 04:37:07;;;;;;;0.57;0.05;;;16.20;98.90;;;;;;7403458;19;19919;-43
2022/12/08 04:39:36;;;;;;;0.30;0.00;;;16.20;99.00;;;;;;7406950;19;19919;-42
2022/12/08 04:42:05;;;;;;;0.73;0.00;;;16.20;99.20;;;;;;7403674;19;19923;-43
2022/12/08 04:44:37;;;;;;;0.77;0.32;;;16.20;98.90;;;;;;7405994;19;20319;-44
2022/12/08 04:47:06;;;;;;;0.63;0.10;;;16.20;98.90;;;;;;7405824;19;19923;-44
2022/12/08 04:49:35;;;;;;;1.10;0.30;;;16.20;98.90;;;;;;7395280;19;19918;-43
2022/12/08 04:52:04;;;;;;;1.17;0.40;;;16.20;98.90;;;;;;7404177;19;19926;-42
2022/12/08 04:54:34;;;;;;;0.65;0.00;;;16.20;99.00;;;;;;7405783;19;19922;-43
2022/12/08 04:57:03;;;;;;;1.05;0.10;;;16.20;99.00;;;;;;7402875;19;19923;-47
2022/12/08 04:59:32;;;;;;;1.25;0.47;;;16.10;99.00;;;;;;7404475;19;19926;-43
2022/12/08 05:02:03;;;;;;;0.90;0.10;;;16.10;99.20;;;;;;7406790;19;19919;-42
2022/12/08 05:04:32;;;;;;;0.63;0.32;;;16.10;98.90;;;;;;7404951;19;19985;-43
2022/12/08 05:07:01;;;;;;;0.30;0.00;;;16.10;98.90;;;;;;7396353;19;20286;-42
2022/12/08 05:09:33;;;;;;;0.35;0.00;;;16.10;98.90;;;;;;7402961;19;19975;-43
2022/12/08 05:12:02;;;;;;;1.05;0.10;;;16.10;98.90;;;;;;7413759;19;19942;-44
2022/12/08 05:14:31;;;;;;;0.70;0.00;;;16.10;98.90;;;;;;7407885;19;19926;-44
2022/12/08 05:17:03;;;;;;;1.45;0.35;;;16.10;98.90;;;;;;7412373;19;19918;-43
2022/12/08 05:19:32;;;;;;;0.50;0.00;;;16.10;98.90;;;;;;7407670;19;19986;-43
2022/12/08 05:22:01;;;;;;;1.10;0.40;;;16.10;98.90;;;;;;7409180;19;19930;-45
2022/12/08 05:24:30;;;;;;;1.63;0.38;;;16.10;98.90;;;;;;7403883;19;20351;-47
2022/12/08 05:26:59;;;;;;;0.90;0.50;;;16.10;99.10;;;;;;7409871;19;20392;-44
2022/12/08 05:29:29;;;;;;;0.93;0.40;;;16.10;98.90;;;;;;7410467;19;19919;-43
2022/12/08 05:32:02;;;;;;;1.20;0.47;;;16.10;98.90;;;;;;7410685;19;19922;-43
2022/12/08 05:34:34;;;;;;;0.65;0.50;;;16.10;98.90;;;;;;7408057;19;20349;-43
2022/12/08 05:37:03;;;;;;;1.10;0.13;;;16.00;98.90;;;;;;7407959;19;19978;-44
2022/12/08 05:39:33;;;;;;;1.15;0.60;;;16.00;98.80;;;;;;7408310;19;20140;-42
2022/12/08 05:42:01;;;;;;;1.38;0.10;;;16.00;98.80;;;;;;7408082;19;19919;-42
2022/12/08 05:44:30;;;;;;;0.40;0.00;;;16.00;98.90;;;;;;7400568;19;19921;-43
2022/12/08 05:46:59;;;;;;;0.85;0.25;;;16.00;98.90;;;;;;7412282;19;20336;-42
2022/12/08 05:49:31;;;;;;;0.40;0.03;;;16.00;98.90;;;;;;7405388;19;20272;-43
2022/12/08 05:52:00;;;;;;;1.35;0.35;;;16.00;98.90;;;;;;7412186;19;19919;-43
2022/12/08 05:54:29;;;;;;;1.20;0.63;;;16.00;98.80;;;;;;7406964;19;19923;-44
2022/12/08 05:56:59;;;;;;;0.40;0.10;;;16.00;98.80;;;;;;7407929;19;20000;-44
2022/12/08 05:59:28;;;;;;;0.35;0.00;;;16.00;98.80;;;;;;7402361;19;20568;-42
2022/12/08 06:01:59;;;;;;;0.50;0.10;;;16.00;98.90;;;;;;7411221;19;19922;-44
2022/12/08 06:04:31;;;;;;;0.80;0.30;;;16.00;98.90;;;;;;7409224;19;19910;-44
2022/12/08 06:07:00;;;;;;;1.35;0.43;;;16.00;98.90;;;;;;7409929;19;20572;-42
2022/12/08 06:09:28;;;;;;;0.28;0.03;;;15.90;98.80;;;;;;7410599;19;19930;-47
2022/12/08 06:11:57;;;;;;;1.38;0.35;;;15.90;98.80;;;;;;7408720;19;19933;-44
2022/12/08 06:14:26;;;;;;;0.85;0.10;;;15.90;98.90;;;;;;7410635;19;19917;-43
2022/12/08 06:16:55;;;;;;;1.58;0.40;;;15.90;98.90;;;;;;7408436;19;19930;-44
2022/12/08 06:19:43;;;;;;;0.20;0.00;;;15.90;98.80;;;;;;7407354;19;19919;-44
2022/12/08 06:22:12;;;;;;;0.70;0.35;;;15.90;98.90;;;;;;7408800;19;19935;-43
2022/12/08 06:24:41;;;;;;;0.68;0.10;;;15.90;98.90;;;;;;7407841;19;19923;-43
2022/12/08 06:27:10;;;;;;;0.63;0.10;;;15.90;98.90;;;;;;7410090;19;19946;-45
2022/12/08 06:29:39;;;;;;;0.90;0.50;;;15.90;98.90;;;;;;7406660;19;19914;-45
2022/12/08 06:32:08;;;;;;;0.98;0.10;;;15.90;98.80;;;;;;7407282;19;19919;-44
2022/12/08 06:34:44;;;;;;;0.60;0.28;;;15.90;98.90;;;;;;7406973;19;19925;-44
2022/12/08 06:37:16;;;;;;;1.13;0.03;;;15.90;98.90;;;;;;7406793;19;19925;-43
2022/12/08 06:39:50;;;;;;;0.73;0.20;;;15.90;98.90;;;;;;7409019;19;20264;-43
2022/12/08 06:45:01;;;;;;;0.80;0.30;;;15.90;98.90;;;;;;7406570;19;19914;-43
2022/12/08 06:47:30;;;;;;;;;;;15.90;98.90;;;;;;7394990;19;22812;-43
2022/12/08 06:50:02;;;;;;;0.95;0.32;;;15.90;98.90;;;;;;7411382;19;19950;-44
2022/12/08 06:52:30;;;;;;;0.60;0.10;;;15.80;98.80;;;;;;7406235;19;19937;-44
2022/12/08 06:55:02;;;;;;;0.50;0.00;;;15.80;98.80;;;;;;7409091;19;19961;-44
2022/12/08 06:57:31;;;;;;;0.85;0.40;;;15.80;98.90;;;;;;7405835;19;19978;-44
2022/12/08 07:00:00;;;;;;;0.93;0.38;;;15.80;99.10;;;;;;7407324;19;19914;-44
2022/12/08 07:02:32;;;;;;;0.45;0.20;;;15.80;98.90;;;;;;7404981;19;19970;-44
2022/12/08 07:05:04;;;;;;;1.15;0.30;;;15.80;98.90;;;;;;7408203;19;19943;-43
2022/12/08 07:07:33;;;;;;;0.65;0.20;;;15.80;98.90;;;;;;7407248;19;20639;-42
2022/12/08 07:10:02;;;;;;;0.85;0.47;;;15.80;98.90;;;;;;7407396;19;19947;-45
2022/12/08 07:12:43;;;;;;;;;;;15.80;98.90;;;;;;7393259;19;19922;-43
2022/12/08 07:15:13;;;;;;;0.57;0.10;;;15.80;98.90;;;;;;7396428;19;19914;-44
2022/12/08 07:17:42;;;;;;;0.68;0.28;;;15.80;99.00;;;;;;7410366;19;19942;-43
2022/12/08 07:20:14;;;;;;;0.88;0.00;;;15.70;98.80;;;;;;7399126;19;19936;-43
2022/12/08 07:22:49;;;;;;;1.00;0.10;;;15.60;98.70;;;;;;7403290;19;19919;-43
2022/12/08 07:25:18;;;;;;;1.42;0.32;;;15.60;98.80;;;;;;7404540;19;20339;-43
2022/12/08 07:27:48;;;;;;;1.48;0.52;;;15.60;98.70;;;;;;7406285;19;19923;-43
2022/12/08 07:30:18;;;;;;;0.68;0.00;;;15.60;98.90;;;;;;7403685;19;20340;-44
2022/12/08 07:32:47;;;;;;;2.03;0.20;;;15.50;98.60;;;;;;7407128;19;19939;-43
2022/12/08 07:35:18;;;;;;;0.68;0.20;;;15.50;98.30;;;;;;7403749;19;19926;-45
2022/12/08 07:37:47;;;;;;;0.98;0.20;;;15.50;98.50;;;;;;7397540;19;19922;-45
2022/12/08 07:40:17;;;;;;;;;;;15.50;98.50;;;;;;7410930;19;19943;-44
2022/12/08 07:42:46;;;;;;;0.80;0.40;;;15.30;97.30;;;;;;7405507;19;19978;-43
2022/12/08 07:45:15;;;;;;;1.35;0.00;;;15.20;98.20;;;;;;7404623;19;19918;-43
2022/12/08 07:47:44;;;;;;;1.23;0.10;;;15.30;98.40;;;;;;7403996;19;19922;-43
2022/12/08 07:50:13;;;;;;;2.15;0.47;;;15.30;98.30;;;;;;7405629;19;19922;-43
2022/12/08 07:52:45;;;;;;;0.90;0.10;;;15.40;98.20;;;;;;7404883;19;20341;-41
2022/12/08 07:55:13;;;;;;;0.60;0.52;;;15.30;98.10;;;;;;7396784;19;20367;-43
2022/12/08 07:57:42;;;;;;;1.13;0.10;;;15.30;98.00;;;;;;7407592;19;19919;-43
2022/12/08 08:00:14;;;;;;;1.13;0.43;;;15.30;97.70;;;;;;7404797;19;19915;-42
2022/12/08 08:02:44;;;;;;;1.55;0.10;;;15.20;97.90;;;;;;7406843;19;20327;-43
2022/12/08 08:05:14;;;;;;;0.73;0.00;;;15.20;98.00;;;;;;7404360;19;19914;-42
2022/12/08 08:07:47;;;;;;;1.90;0.63;;;15.20;98.00;;;;;;7404418;19;19910;-43
2022/12/08 08:10:16;;;;;;;2.20;0.30;;;15.30;97.50;;;;;;7404912;19;19923;-44
2022/12/08 08:12:49;;;;;;;1.08;0.30;;;15.20;97.90;;;;;;7397679;19;19926;-43
2022/12/08 08:15:23;;;;;;;0.80;0.10;;;15.20;97.90;;;;;;7407391;19;19955;-42
2022/12/08 08:17:53;;;;;;;1.13;0.00;;;15.20;97.80;;;;;;7404492;19;19922;-45
2022/12/08 08:20:23;;;;;;;1.38;0.05;;;15.20;97.80;;;;;;7407269;19;19918;-47
2022/12/08 08:22:54;;;;;;;1.38;0.68;;;15.20;97.40;;;;;;7404039;19;19918;-43
2022/12/08 08:25:24;;;;;;;0.60;0.10;;;15.20;97.70;;;;;;7403552;19;20260;-43
2022/12/08 08:27:53;;;;;;;1.38;0.40;;;15.20;97.80;;;;;;7403251;19;19935;-43
2022/12/08 08:30:22;;;;;;;1.15;0.10;;;15.20;97.80;;;;;;7396871;19;19922;-43
2022/12/08 08:32:51;;;;;;;1.27;0.10;;;15.10;97.70;;;;;;7407031;19;19926;-42
2022/12/08 08:35:28;;;;;;;1.88;0.40;;;15.20;97.70;;;;;;7404032;19;19922;-44
2022/12/08 08:37:59;;;;;;;2.10;0.22;;;15.20;97.50;;;;;;7403112;19;19926;-43
2022/12/08 08:40:29;;;;;;;1.75;0.50;;;15.10;97.60;;;;;;7404380;19;19915;-42
2022/12/08 08:42:58;;;;;;;0.90;0.05;;;15.10;97.70;;;;;;7403382;19;19915;-42
2022/12/08 08:45:27;;;;;;;3.60;0.10;;;15.10;97.70;;;;;;7405829;19;20491;-44
2022/12/08 08:47:57;;;;;;;0.60;0.20;;;15.10;97.60;;;;;;7402464;19;19978;-43
2022/12/08 08:50:27;;;;;;;0.75;0.10;;;15.10;97.60;;;;;;7406746;19;19947;-43
2022/12/08 08:52:55;;;;;;;0.80;0.00;;;15.20;97.60;;;;;;7402037;19;19918;-43
2022/12/08 08:55:27;;;;;;;1.55;0.30;;;15.20;97.50;;;;;;7403160;19;19915;-41
2022/12/08 08:58:00;;;;;;;0.35;0.00;;;15.20;97.60;;;;;;7405798;19;20277;-44
2022/12/08 09:00:29;;;;;;;1.00;0.08;;;15.20;97.50;;;;;;7404857;19;19907;-43
2022/12/08 09:02:58;;;;;;;1.25;0.32;;;15.20;97.50;;;;;;7402921;19;19915;-44
2022/12/08 09:05:27;;;;;;;1.33;0.10;;;15.20;97.50;;;;;;7402154;19;19988;-41
2022/12/08 09:07:55;;;;;;;1.00;0.20;;;15.20;97.40;;;;;;7397146;19;20324;-44
2022/12/08 09:10:27;;;;;;;2.33;0.15;;;15.20;97.20;;;;;;7402542;19;19929;-42
2022/12/08 09:12:56;;;;;;;0.88;0.10;;;15.10;97.40;;;;;;7402099;19;19925;-43
2022/12/08 09:15:25;;;;;;;0.50;0.10;;;15.00;96.80;;;;;;7400953;19;19929;-44
2022/12/08 09:17:54;;;;;;;2.08;0.45;;;15.00;97.30;;;;;;7402389;19;20325;-42
2022/12/08 09:20:23;;;;;;;0.52;0.00;;;15.00;97.50;;;;;;7402452;19;19919;-43
2022/12/08 09:22:54;;;;;;;1.00;0.10;;;15.10;97.60;;;;;;7401891;19;19915;-43
2022/12/08 09:25:23;;;;;;;1.65;0.45;;;15.10;97.40;;;;;;7395551;19;19939;-42
2022/12/08 09:27:55;;;;;;;0.85;0.38;;;15.10;97.70;;;;;;7405463;19;19944;-44
2022/12/08 09:30:24;;;;;;;1.95;0.20;;;15.10;97.10;;;;;;7401885;19;19974;-42
2022/12/08 09:32:53;;;;;;;1.10;0.32;;;15.10;97.50;;;;;;7406116;19;19943;-43
2022/12/08 09:35:22;;;;;;;0.63;0.00;;;15.10;97.40;;;;;;7400989;19;19919;-42
2022/12/08 09:37:51;;;;;;;2.13;0.60;;;15.10;97.00;;;;;;7403847;19;19936;-43
2022/12/08 09:40:23;;;;;;;1.08;0.17;;;15.10;97.00;;;;;;7404451;19;19929;-41
2022/12/08 09:43:02;;;;;;;1.40;0.50;;;15.10;97.20;;;;;;7394634;19;19978;-43
2022/12/08 09:45:35;;;;;;;1.55;0.10;;;15.10;97.30;;;;;;7403490;19;19926;-43
2022/12/08 09:48:09;;;;;;;2.03;0.13;;;15.10;97.50;;;;;;7400819;19;20272;-43
2022/12/08 09:50:42;;;;;;;1.20;0.30;;;15.10;97.40;;;;;;7401382;19;19914;-42
2022/12/08 09:53:16;;;;;;;1.45;0.10;;;15.20;97.50;;;;;;7400399;19;19915;-43
2022/12/08 09:55:48;;;;;;;2.55;0.52;;;15.10;96.70;;;;;;7401516;19;19932;-44
2022/12/08 09:58:40;;;;;;;2.00;0.50;;;15.10;97.10;;;;;;7407517;19;19935;-44
2022/12/08 10:01:11;;;;;;;1.85;0.52;;;15.10;96.70;;;;;;7402235;19;19922;-44
2022/12/08 10:03:40;;;;;;;0.68;0.00;;;15.00;97.10;;;;;;7410499;19;19921;-42
2022/12/08 10:06:17;;;;;;;1.55;0.30;;;15.10;97.40;;;;;;7407517;19;19914;-42
2022/12/08 10:08:54;;;;;;;2.85;0.50;;;15.00;96.80;;;;;;7405610;19;19961;-44
2022/12/08 10:11:32;;;;;;;1.42;0.10;;;15.10;97.30;;;;;;7411606;19;20023;-43
2022/12/08 10:14:15;;;;;;;2.15;0.10;;;15.10;97.30;;;;;;7409591;19;19919;-42
2022/12/08 10:16:49;;;;;;;2.33;0.40;;;15.10;97.40;;;;;;7406928;19;19942;-44
2022/12/08 10:19:23;;;;;;;1.48;0.10;;;15.10;96.40;;;;;;7407826;19;19922;-43
2022/12/08 10:21:52;;;;;;;1.42;0.38;;;15.00;97.00;;;;;;7407368;19;19915;-43
2022/12/08 10:24:27;;;;;;;0.90;0.10;;;15.00;97.30;;;;;;7401719;19;19911;-42
2022/12/08 10:26:57;;;;;;;1.20;0.30;;;15.00;96.90;;;;;;7410360;19;19942;-49
2022/12/08 10:29:33;;;;;;;1.70;0.57;;;15.00;97.10;;;;;;7409434;19;19998;-42
2022/12/08 10:32:03;;;;;;;2.17;0.20;;;15.00;97.10;;;;;;7409698;19;19930;-42
2022/12/08 10:34:32;;;;;;;1.73;0.10;;;15.00;96.90;;;;;;7408367;19;19914;-42
2022/12/08 10:37:01;;;;;;;1.55;0.10;;;14.90;96.70;;;;;;7404816;19;19943;-42
2022/12/08 10:39:37;;;;;;;1.48;0.52;;;14.90;97.10;;;;;;7408287;19;19974;-43
2022/12/08 10:42:19;;;;;;;1.23;0.10;;;15.00;97.30;;;;;;7406503;19;19914;-43
2022/12/08 10:45:04;;;;;;;1.42;0.13;;;14.90;96.20;;;;;;7407728;19;19922;-42
2022/12/08 10:47:38;;;;;;;0.93;0.10;;;14.90;96.30;;;;;;7406026;19;20269;-42
2022/12/08 10:50:26;;;;;;;2.72;0.73;;;14.90;97.10;;;;;;7400361;19;19947;-42
2022/12/08 10:53:01;;;;;;;1.40;0.10;;;14.90;96.60;;;;;;7405101;19;19923;-42
2022/12/08 10:55:40;;;;;;;2.15;0.50;;;14.90;96.90;;;;;;7396493;19;19929;-42
2022/12/08 10:58:25;;;;;;;1.05;0.40;;;15.00;97.00;;;;;;7397466;19;19933;-41
2022/12/08 11:00:59;;;;;;;1.23;0.10;;;15.30;97.10;;;;;;7405780;19;19923;-43
2022/12/08 11:03:31;;;;;;;2.13;0.38;;;15.50;97.10;;;;;;7406314;19;19943;-40
2022/12/08 11:06:13;;;;;;;5.85;0.70;;;15.70;96.80;;;;;;7407922;19;20384;-43
2022/12/08 11:08:49;;;;;;;1.48;0.30;;;15.90;96.90;;;;;;7402459;19;19947;-42
2022/12/08 11:11:19;;;;;;;0.50;0.10;;;16.00;96.90;;;;;;7409436;19;19919;-43
2022/12/08 11:13:51;;;;;;;2.80;0.50;;;16.20;96.80;;;;;;7405651;19;19925;-42
2022/12/08 11:16:25;;;;;;;1.27;0.40;;;16.50;96.70;;;;;;7399288;19;19946;-44
2022/12/08 11:18:58;;;;;;;1.10;0.20;;;16.70;96.70;;;;;;7406429;19;19919;-42
2022/12/08 11:21:37;;;;;;;1.30;0.60;;;16.90;96.70;;;;;;7405625;19;19970;-44
2022/12/08 11:24:30;;;;;;;0.98;0.40;;;17.10;96.60;;;;;;7406386;19;19923;-44
2022/12/08 11:27:02;;;;;;;1.45;0.20;;;17.30;96.60;;;;;;7408512;19;19933;-45
2022/12/08 11:29:35;;;;;;;1.85;0.30;;;17.50;96.80;;;;;;7405213;19;20418;-43
2022/12/08 11:32:13;;;;;;;1.45;0.47;;;17.70;96.60;;;;;;7402101;19;19918;-42
2022/12/08 11:34:49;;;;;;;2.00;0.10;;;17.80;96.50;;;;;;7403894;19;19926;-43
2022/12/08 11:37:23;;;;;;;1.30;0.20;;;18.00;96.60;;;;;;7402838;19;20345;-48
2022/12/08 11:39:56;;;;;;;0.70;0.10;;;18.20;96.60;;;;;;7406206;19;19915;-44
2022/12/08 11:42:30;;;;;;;1.92;0.40;;;18.30;96.50;;;;;;7405273;19;19919;-43
2022/12/08 11:45:03;;;;;;;0.77;0.03;;;18.50;96.40;;;;;;7404941;19;19918;-44
2022/12/08 11:47:42;;;;;;;0.70;0.10;;;18.60;96.30;;;;;;7403491;19;19926;-44
2022/12/08 11:50:21;;;;;;;1.88;0.20;;;18.80;96.30;;;;;;7398812;19;19934;-46
2022/12/08 11:52:53;;;;;;;1.13;0.30;;;18.90;96.30;;;;;;7404244;19;19922;-43
2022/12/08 11:55:33;;;;;;;1.38;0.17;;;19.10;96.20;;;;;;7405453;19;19933;-47
2022/12/08 11:58:11;;;;;;;1.52;0.57;;;19.20;95.90;;;;;;7405791;19;19926;-45
2022/12/08 12:00:40;;;;;;;2.05;0.47;;;19.40;96.00;;;;;;7409103;19;19922;-43
2022/12/08 12:03:23;;;;;;;0.90;0.22;;;19.50;96.00;;;;;;7406323;19;20276;-42
2022/12/08 12:06:11;;;;;;;1.45;0.30;;;19.60;95.90;;;;;;7407705;19;19944;-46
2022/12/08 12:08:51;;;;;;;0.63;0.03;;;19.70;95.90;;;;;;7395633;19;19942;-44
2022/12/08 12:14:28;;;;;;;1.58;0.47;;;19.90;95.90;;;;;;7407718;19;19926;-45
2022/12/08 12:17:03;;;;;;;2.95;0.63;;;20.10;95.80;;;;;;7404971;19;19919;-43
2022/12/08 12:19:40;;;;;;;4.75;0.63;;;20.20;96.00;;;;;;7404596;19;19930;-44
2022/12/08 12:22:16;;;;;;;4.28;1.30;;;20.30;96.00;;;;;;7397332;19;19938;-47
2022/12/08 12:24:49;;;;;;;6.38;1.10;;;20.40;96.20;;;;;;7404834;19;20344;-48
2022/12/08 12:27:26;;;;;;;3.15;0.90;;;20.60;96.10;;;;;;7403490;19;19970;-43
2022/12/08 12:29:59;;;;;;;2.95;0.40;;;20.60;95.90;;;;;;7403738;19;20241;-42
2022/12/08 12:32:44;;;;;;;6.60;0.40;;;20.70;96.00;;;;;;7402290;19;19919;-42
2022/12/08 12:35:25;;;;;;;2.83;0.35;;;20.70;95.80;;;;;;7405475;19;20258;-42
2022/12/08 12:37:59;;;;;;;7.20;0.55;;;20.70;95.80;;;;;;7399131;19;20287;-42
2022/12/08 12:40:30;;;;;;;3.10;0.30;;;20.70;95.90;;;;;;7406143;19;19926;-42
2022/12/08 12:43:25;;;;;;;2.65;0.43;;;20.70;95.90;;;;;;7401584;19;19974;-43
2022/12/08 12:46:36;;;;;;;5.18;1.23;;;20.80;95.80;;;;;;7403026;19;19933;-43
2022/12/08 12:49:35;;;;;;;2.63;1.05;;;20.80;95.70;;;;;;7403895;19;19962;-43
2022/12/08 12:52:39;;;;;;;3.10;0.40;;;20.70;95.70;;;;;;7407068;19;19922;-41
2022/12/08 12:55:30;;;;;;;4.05;0.73;;;20.70;95.80;;;;;;7402366;19;19948;-41
2022/12/08 12:58:00;;;;;;;4.38;1.05;;;20.70;95.80;;;;;;7401813;19;20962;-41
2022/12/08 13:00:29;;;;;;;2.78;0.70;;;20.70;96.10;;;;;;7395025;19;20382;-41
2022/12/08 13:03:00;;;;;;;3.15;0.93;;;20.80;95.90;;;;;;7405223;19;19942;-41
2022/12/08 13:05:32;;;;;;;2.65;0.80;;;20.80;95.90;;;;;;7406437;19;19931;-42
2022/12/08 13:08:06;;;;;;;4.63;0.50;;;20.80;95.90;;;;;;7403363;19;19922;-41
2022/12/08 13:10:40;;;;;;;3.45;0.60;;;20.80;95.90;;;;;;7403914;19;19990;-41
2022/12/08 13:13:19;;;;;;;3.40;1.00;;;20.70;95.90;;;;;;7402198;19;19921;-40
2022/12/08 13:15:53;;;;;;;4.80;0.95;;;20.70;95.80;;;;;;7403755;19;19915;-42
2022/12/08 13:18:26;;;;;;;2.45;0.32;;;20.70;95.80;;;;;;7395344;19;20253;-40
2022/12/08 13:21:04;;;;;;;2.03;0.30;;;20.70;95.80;;;;;;7405973;19;19930;-40
2022/12/08 13:23:50;;;;;;;2.25;1.00;;;20.60;95.80;;;;;;7405441;19;19926;-42
2022/12/08 13:26:23;;;;;;;2.75;0.35;;;20.60;95.80;;;;;;7406224;19;19930;-41
2022/12/08 13:29:15;;;;;;;3.05;0.70;;;20.60;95.90;;;;;;7401974;19;19927;-41